Time;durP1;ratioP1;P1;durP2;ratioP2;P2;SDS_P1;SDS_P2;PMS_P1;PMS_P2;Temp;Humidity;BMP_temperature;BMP_pressure;BME280_temperature;BME280_humidity;BME280_pressure;Samples;Min_cycle;Max_cycle;Signal;HPM_P1;HPM_P2
2023/09/24 00:02:20;;;;;;;4.85;2.42;;;12.40;99.90;;;;;;5094053;28;20036;-52
2023/09/24 00:04:46;;;;;;;7.38;3.10;;;12.40;99.90;;;;;;5092480;28;20040;-55
2023/09/24 00:07:14;;;;;;;10.82;3.00;;;12.40;99.90;;;;;;5073680;28;20040;-53
2023/09/24 00:09:40;;;;;;;7.82;3.10;;;12.50;99.90;;;;;;5073590;28;20040;-55
2023/09/24 00:12:06;;;;;;;9.60;3.10;;;12.40;99.90;;;;;;5073348;28;20044;-54
2023/09/24 00:14:32;;;;;;;10.35;2.53;;;12.40;99.90;;;;;;5073243;28;20162;-53
2023/09/24 00:16:57;;;;;;;5.20;2.13;;;12.40;99.90;;;;;;5073345;28;20131;-53
2023/09/24 00:19:27;;;;;;;12.23;2.75;;;12.40;99.90;;;;;;5073527;28;20048;-53
2023/09/24 00:21:52;;;;;;;3.50;2.38;;;12.30;99.90;;;;;;5073117;28;20486;-53
2023/09/24 00:24:18;;;;;;;6.03;2.42;;;12.30;99.90;;;;;;5073734;28;20036;-52
2023/09/24 00:26:45;;;;;;;6.15;2.60;;;12.20;99.90;;;;;;5073195;28;20055;-53
2023/09/24 00:29:11;;;;;;;10.57;2.78;;;12.20;99.90;;;;;;5076806;28;20482;-56
2023/09/24 00:31:37;;;;;;;6.53;2.53;;;12.10;99.90;;;;;;5093541;28;20024;-52
2023/09/24 00:34:03;;;;;;;6.45;2.72;;;12.00;99.90;;;;;;5093176;28;20052;-54
2023/09/24 00:36:29;;;;;;;7.70;2.75;;;12.00;99.90;;;;;;5093126;28;20047;-54
2023/09/24 00:38:55;;;;;;;5.07;2.40;;;12.00;99.90;;;;;;5092826;28;20043;-55
2023/09/24 00:41:20;;;;;;;6.70;2.80;;;11.90;99.90;;;;;;5093646;28;20043;-54
2023/09/24 00:43:46;;;;;;;6.40;2.40;;;11.90;99.90;;;;;;5092795;28;20083;-51
2023/09/24 00:46:14;;;;;;;6.47;2.80;;;11.90;99.90;;;;;;5092950;28;20032;-51
2023/09/24 00:48:40;;;;;;;6.18;2.72;;;11.90;99.90;;;;;;5092985;28;20043;-52
2023/09/24 00:51:16;;;;;;;9.15;2.70;;;11.90;99.90;;;;;;5092934;28;20028;-51
2023/09/24 00:53:42;;;;;;;5.22;2.88;;;11.80;99.90;;;;;;5093168;28;20219;-55
2023/09/24 00:56:09;;;;;;;8.25;2.80;;;11.70;99.90;;;;;;5092944;28;20074;-53
2023/09/24 00:58:35;;;;;;;6.95;2.55;;;11.70;99.90;;;;;;5093150;28;20024;-52
2023/09/24 01:01:03;;;;;;;10.50;2.45;;;11.70;99.90;;;;;;5092822;28;20502;-52
2023/09/24 01:03:28;;;;;;;4.57;2.63;;;11.60;99.90;;;;;;5092677;28;20061;-55
2023/09/24 01:05:54;;;;;;;3.78;2.80;;;11.50;99.90;;;;;;5081969;28;20033;-53
2023/09/24 01:08:24;;;;;;;8.80;2.30;;;11.50;99.90;;;;;;5072182;28;20048;-53
2023/09/24 01:10:50;;;;;;;3.45;2.25;;;11.40;99.90;;;;;;5072361;28;20044;-51
2023/09/24 01:13:20;;;;;;;7.13;2.25;;;11.50;99.90;;;;;;5072121;28;20032;-54
2023/09/24 01:15:48;;;;;;;7.53;2.83;;;11.40;99.90;;;;;;5072509;28;20040;-52
2023/09/24 01:18:14;;;;;;;6.95;2.50;;;11.50;99.90;;;;;;5071826;28;20056;-53
2023/09/24 01:20:41;;;;;;;9.18;2.83;;;11.40;99.90;;;;;;5072267;28;20552;-52
2023/09/24 01:23:14;;;;;;;7.40;2.80;;;11.40;99.90;;;;;;5072246;28;20403;-52
2023/09/24 01:25:42;;;;;;;9.73;2.80;;;11.40;99.90;;;;;;5072136;28;20044;-52
2023/09/24 01:28:08;;;;;;;5.28;2.80;;;11.40;99.90;;;;;;5072005;28;20475;-53
2023/09/24 01:30:34;;;;;;;4.82;2.85;;;11.40;99.90;;;;;;5071912;28;20028;-51
2023/09/24 01:33:01;;;;;;;4.55;2.50;;;11.30;99.90;;;;;;5072374;28;20037;-54
2023/09/24 01:35:32;;;;;;;6.43;2.90;;;11.30;99.90;;;;;;5071816;28;20037;-52
2023/09/24 01:38:04;;;;;;;5.50;2.63;;;11.30;99.90;;;;;;5071844;28;20489;-53
2023/09/24 01:40:30;;;;;;;6.25;2.75;;;11.30;99.90;;;;;;5071857;28;20044;-53
2023/09/24 01:42:58;;;;;;;7.15;3.25;;;11.40;99.90;;;;;;5071869;28;20121;-53
2023/09/24 01:45:25;;;;;;;4.30;2.47;;;11.30;99.90;;;;;;5071739;28;20043;-52
2023/09/24 01:47:51;;;;;;;7.18;2.80;;;11.30;99.90;;;;;;5071546;28;20047;-53
2023/09/24 01:50:17;;;;;;;7.90;2.63;;;11.30;99.90;;;;;;5071707;28;20115;-54
2023/09/24 01:52:45;;;;;;;13.25;3.53;;;11.30;99.90;;;;;;5071726;28;20032;-52
2023/09/24 01:55:15;;;;;;;8.68;3.20;;;11.30;99.90;;;;;;5071596;28;20043;-53
2023/09/24 01:57:44;;;;;;;10.68;3.03;;;11.30;99.90;;;;;;5079008;28;20036;-54
2023/09/24 02:00:18;;;;;;;6.65;3.10;;;11.30;99.90;;;;;;5071136;28;20458;-51
2023/09/24 02:02:43;;;;;;;5.32;2.50;;;11.40;99.90;;;;;;5072612;28;20043;-52
2023/09/24 02:05:10;;;;;;;8.75;2.63;;;11.30;99.90;;;;;;5082375;28;20044;-53
2023/09/24 02:07:40;;;;;;;7.95;2.97;;;11.30;99.90;;;;;;5088284;28;20051;-53
2023/09/24 02:10:06;;;;;;;8.35;2.92;;;11.40;99.90;;;;;;5092082;28;20032;-53
2023/09/24 02:12:39;;;;;;;6.28;2.78;;;11.40;99.90;;;;;;5091500;28;20044;-52
2023/09/24 02:15:12;;;;;;;6.28;2.53;;;11.40;99.90;;;;;;5061982;28;20040;-53
2023/09/24 02:17:41;;;;;;;7.10;3.00;;;11.40;99.90;;;;;;5091274;28;20153;-54
2023/09/24 02:20:32;;;;;;;5.28;3.08;;;11.40;99.90;;;;;;5091769;28;20040;-53
2023/09/24 02:23:02;;;;;;;6.07;2.63;;;11.30;99.90;;;;;;5091438;28;20094;-50
2023/09/24 02:25:30;;;;;;;7.97;2.97;;;11.30;99.90;;;;;;5091561;28;20040;-53
2023/09/24 02:27:57;;;;;;;3.85;2.30;;;11.30;99.90;;;;;;5091193;28;20071;-52
2023/09/24 02:30:31;;;;;;;7.72;3.22;;;11.30;99.90;;;;;;5083960;28;20036;-53
2023/09/24 02:33:00;;;;;;;4.15;2.65;;;11.30;99.90;;;;;;5074251;28;20383;-55
2023/09/24 02:35:25;;;;;;;;;;;11.30;99.90;;;;;;5091852;28;20111;-53
2023/09/24 02:37:52;;;;;;;9.82;3.03;;;11.20;99.90;;;;;;5091143;28;20015;-52
2023/09/24 02:40:28;;;;;;;2.90;2.35;;;11.30;99.90;;;;;;5091147;28;20482;-55
2023/09/24 02:42:56;;;;;;;8.45;2.63;;;11.30;99.90;;;;;;5091950;28;20516;-53
2023/09/24 02:45:22;;;;;;;5.20;2.40;;;11.20;99.90;;;;;;5091817;28;20089;-51
2023/09/24 02:47:51;;;;;;;6.20;2.92;;;11.30;99.90;;;;;;5091816;28;20048;-54
2023/09/24 02:50:23;;;;;;;8.50;2.72;;;11.30;99.90;;;;;;5091263;28;20032;-54
2023/09/24 02:52:53;;;;;;;3.85;2.60;;;11.30;99.90;;;;;;5091166;28;20032;-54
2023/09/24 02:55:19;;;;;;;3.90;2.88;;;11.20;99.90;;;;;;5091332;28;20438;-53
2023/09/24 02:57:46;;;;;;;5.80;3.03;;;11.20;99.90;;;;;;5091355;28;20044;-55
2023/09/24 03:00:26;;;;;;;4.55;2.67;;;11.20;99.90;;;;;;5091101;28;20049;-54
2023/09/24 03:02:58;;;;;;;6.60;2.90;;;11.30;99.90;;;;;;5091342;28;20044;-54
2023/09/24 03:05:25;;;;;;;6.13;3.47;;;11.30;99.90;;;;;;5077534;28;20044;-54
2023/09/24 03:07:51;;;;;;;5.53;2.67;;;11.30;99.90;;;;;;5070949;28;20172;-54
2023/09/24 03:10:18;;;;;;;4.65;2.67;;;11.30;99.90;;;;;;5071071;28;20037;-54
2023/09/24 03:12:45;;;;;;;5.72;2.70;;;11.30;99.90;;;;;;5073179;28;20036;-55
2023/09/24 03:15:11;;;;;;;7.35;2.78;;;11.30;99.90;;;;;;5074613;28;20040;-54
2023/09/24 03:17:41;;;;;;;6.65;2.83;;;11.40;99.90;;;;;;5074165;28;20060;-53
2023/09/24 03:20:15;;;;;;;5.47;3.30;;;11.30;99.90;;;;;;5074431;28;20044;-55
2023/09/24 03:22:48;;;;;;;4.25;2.72;;;11.40;99.90;;;;;;5074250;28;20486;-53
2023/09/24 03:25:18;;;;;;;6.72;3.22;;;11.40;99.90;;;;;;5074477;28;20037;-55
2023/09/24 03:27:50;;;;;;;4.88;3.05;;;11.40;99.90;;;;;;5074252;28;20076;-53
2023/09/24 03:30:19;;;;;;;6.10;3.50;;;11.40;99.90;;;;;;5074279;28;20051;-54
2023/09/24 03:32:46;;;;;;;;;;;11.50;99.90;;;;;;5074809;28;20041;-54
2023/09/24 03:35:12;;;;;;;6.47;3.60;;;11.50;99.90;;;;;;5078470;28;20003;-54
2023/09/24 03:37:40;;;;;;;7.40;4.30;;;11.50;99.90;;;;;;5094407;28;20051;-54
2023/09/24 03:40:10;;;;;;;6.10;3.80;;;11.50;99.90;;;;;;5093162;28;20044;-55
2023/09/24 03:42:37;;;;;;;4.78;4.05;;;11.50;99.90;;;;;;5094168;28;20107;-53
2023/09/24 03:45:05;;;;;;;5.07;4.30;;;11.50;99.90;;;;;;5094276;28;20036;-54
2023/09/24 03:47:31;;;;;;;8.55;4.65;;;11.40;99.90;;;;;;5092640;28;20044;-54
2023/09/24 03:49:56;;;;;;;7.28;4.63;;;11.50;99.90;;;;;;5094411;28;20032;-53
2023/09/24 03:52:22;;;;;;;5.63;4.53;;;11.40;99.90;;;;;;5094067;28;20470;-52
2023/09/24 03:54:47;;;;;;;8.57;5.78;;;11.40;99.90;;;;;;5093857;28;20043;-53
2023/09/24 03:57:13;;;;;;;10.48;5.00;;;11.40;99.90;;;;;;5093862;28;20029;-52
2023/09/24 03:59:39;;;;;;;10.13;5.78;;;11.40;99.90;;;;;;5094026;28;20544;-49
2023/09/24 04:02:07;;;;;;;7.47;5.07;;;11.40;99.90;;;;;;5094162;28;20142;-53
2023/09/24 04:04:36;;;;;;;13.32;5.55;;;11.30;99.90;;;;;;5087411;28;20036;-53
2023/09/24 04:07:03;;;;;;;6.90;5.35;;;11.30;99.90;;;;;;5073543;28;20051;-51
2023/09/24 04:09:32;;;;;;;11.73;5.70;;;11.40;99.90;;;;;;5088362;28;20165;-54
2023/09/24 04:12:02;;;;;;;8.40;5.75;;;11.30;99.90;;;;;;5093835;28;20040;-53
2023/09/24 04:14:28;;;;;;;8.85;5.55;;;11.40;99.90;;;;;;5093658;28;20386;-53
2023/09/24 04:16:55;;;;;;;7.53;5.88;;;11.40;99.90;;;;;;5093639;28;20051;-52
2023/09/24 04:19:21;;;;;;;11.00;6.10;;;11.40;99.90;;;;;;5093407;28;20040;-55
2023/09/24 04:21:46;;;;;;;7.07;6.13;;;11.30;99.90;;;;;;5093634;28;20062;-51
2023/09/24 04:24:13;;;;;;;9.73;6.57;;;11.30;99.90;;;;;;5092974;28;20051;-53
2023/09/24 04:26:40;;;;;;;9.35;6.43;;;11.20;99.90;;;;;;5093413;28;20036;-54
2023/09/24 04:29:06;;;;;;;11.00;6.60;;;11.20;99.90;;;;;;5093557;28;20036;-55
2023/09/24 04:31:31;;;;;;;9.00;6.72;;;11.20;99.90;;;;;;5093328;28;20085;-53
2023/09/24 04:33:57;;;;;;;8.68;6.43;;;11.20;99.90;;;;;;5093071;28;20028;-50
2023/09/24 04:36:23;;;;;;;12.50;7.35;;;11.10;99.90;;;;;;5093291;28;20040;-54
2023/09/24 04:38:49;;;;;;;8.43;6.78;;;11.10;99.90;;;;;;5093103;28;20111;-53
2023/09/24 04:41:15;;;;;;;8.68;6.45;;;11.20;99.90;;;;;;5093125;28;20036;-52
2023/09/24 04:43:42;;;;;;;8.68;6.43;;;11.10;99.90;;;;;;5093337;28;20049;-55
2023/09/24 04:46:08;;;;;;;7.80;6.28;;;11.10;99.90;;;;;;5091925;28;20433;-53
2023/09/24 04:48:35;;;;;;;8.68;6.18;;;11.10;99.90;;;;;;5093222;28;20040;-53
2023/09/24 04:51:01;;;;;;;11.77;6.25;;;11.10;99.90;;;;;;5093108;28;20047;-54
2023/09/24 04:53:27;;;;;;;9.13;6.60;;;11.20;99.90;;;;;;5093670;28;20423;-55
2023/09/24 04:55:54;;;;;;;10.75;6.65;;;11.00;99.90;;;;;;5093250;28;20558;-53
2023/09/24 04:58:20;;;;;;;7.10;5.97;;;11.10;99.90;;;;;;5093356;28;20036;-52
2023/09/24 05:00:45;;;;;;;10.68;6.38;;;11.00;99.90;;;;;;5092933;28;20114;-54
2023/09/24 05:03:11;;;;;;;8.80;6.22;;;11.10;99.90;;;;;;5092646;28;20438;-54
2023/09/24 05:05:42;;;;;;;11.13;6.43;;;11.00;99.90;;;;;;5077279;28;20384;-53
2023/09/24 05:08:08;;;;;;;12.45;6.47;;;11.00;99.90;;;;;;5072337;28;20036;-53
2023/09/24 05:10:36;;;;;;;11.10;6.20;;;11.00;99.90;;;;;;5072651;28;20048;-54
2023/09/24 05:13:03;;;;;;;10.80;6.70;;;10.90;99.90;;;;;;5072781;28;20375;-51
2023/09/24 05:15:29;;;;;;;12.23;7.13;;;11.00;99.90;;;;;;5072587;28;20033;-55
2023/09/24 05:17:55;;;;;;;17.20;7.05;;;11.00;99.90;;;;;;5070752;28;20052;-55
2023/09/24 05:20:21;;;;;;;9.27;6.63;;;10.90;99.90;;;;;;5072241;28;20497;-55
2023/09/24 05:22:47;;;;;;;12.10;6.20;;;10.90;99.90;;;;;;5072021;28;20410;-54
2023/09/24 05:25:13;;;;;;;10.73;5.93;;;10.90;99.90;;;;;;5071995;28;20043;-54
2023/09/24 05:27:39;;;;;;;11.52;6.05;;;10.90;99.90;;;;;;5071964;28;20121;-55
2023/09/24 05:30:07;;;;;;;8.02;6.00;;;10.90;99.90;;;;;;5083005;28;20067;-54
2023/09/24 05:32:33;;;;;;;10.67;6.23;;;10.90;99.90;;;;;;5092322;28;20072;-52
2023/09/24 05:34:59;;;;;;;16.20;6.60;;;10.90;99.90;;;;;;5091343;28;20474;-53
2023/09/24 05:37:25;;;;;;;14.60;7.88;;;10.90;99.90;;;;;;5092110;28;20032;-53
2023/09/24 05:39:50;;;;;;;11.77;6.43;;;10.90;99.90;;;;;;5092183;28;20036;-55
2023/09/24 05:42:16;;;;;;;10.55;5.90;;;10.90;99.90;;;;;;5092135;28;20036;-52
2023/09/24 05:44:43;;;;;;;11.32;6.00;;;10.90;99.90;;;;;;5092181;28;20063;-55
2023/09/24 05:47:09;;;;;;;8.00;5.45;;;10.90;99.90;;;;;;5091992;28;20112;-55
2023/09/24 05:49:35;;;;;;;10.30;6.10;;;10.90;99.90;;;;;;5091911;28;20518;-55
2023/09/24 05:52:00;;;;;;;11.85;6.10;;;10.90;99.90;;;;;;5091969;28;20466;-53
2023/09/24 05:54:26;;;;;;;7.95;6.05;;;10.90;99.90;;;;;;5091954;28;20040;-54
2023/09/24 05:56:52;;;;;;;11.77;6.10;;;10.90;99.90;;;;;;5091984;28;20124;-53
2023/09/24 05:59:20;;;;;;;11.15;6.22;;;10.90;99.90;;;;;;5091601;28;20390;-53
2023/09/24 06:01:46;;;;;;;13.05;7.20;;;10.90;99.90;;;;;;5091788;28;20036;-53
2023/09/24 06:04:11;;;;;;;11.45;5.80;;;11.00;99.90;;;;;;5088214;28;20044;-54
2023/09/24 06:06:37;;;;;;;9.48;5.63;;;11.10;99.90;;;;;;5071529;28;20044;-53
2023/09/24 06:09:09;;;;;;;8.93;5.78;;;11.10;99.90;;;;;;5071566;28;20055;-54
2023/09/24 06:11:38;;;;;;;7.40;5.90;;;11.20;99.90;;;;;;5071504;28;20043;-55
2023/09/24 06:14:08;;;;;;;12.23;5.78;;;11.20;99.90;;;;;;5071468;28;20119;-52
2023/09/24 06:16:35;;;;;;;8.73;6.15;;;11.30;99.90;;;;;;5071372;28;20091;-54
2023/09/24 06:19:01;;;;;;;15.02;6.57;;;11.20;99.90;;;;;;5080913;28;20044;-54
2023/09/24 06:21:27;;;;;;;11.57;6.68;;;11.30;99.90;;;;;;5091486;28;20542;-54
2023/09/24 06:23:53;;;;;;;9.80;5.75;;;11.30;99.90;;;;;;5091767;28;20040;-56
2023/09/24 06:26:20;;;;;;;7.88;5.93;;;11.30;99.90;;;;;;5091391;28;20032;-53
2023/09/24 06:28:46;;;;;;;8.75;5.85;;;11.30;99.90;;;;;;5091575;28;20047;-55
2023/09/24 06:31:11;;;;;;;11.55;6.35;;;11.30;99.90;;;;;;5091182;28;20040;-55
2023/09/24 06:33:37;;;;;;;14.25;6.70;;;11.30;99.90;;;;;;5091327;28;20088;-56
2023/09/24 06:36:03;;;;;;;12.13;5.47;;;11.40;99.90;;;;;;5091369;28;20134;-55
2023/09/24 06:38:30;;;;;;;13.55;6.38;;;11.40;99.90;;;;;;5091349;28;20055;-53
2023/09/24 06:40:58;;;;;;;10.77;7.07;;;11.50;99.90;;;;;;5091362;28;20138;-55
2023/09/24 06:43:25;;;;;;;12.80;6.68;;;11.60;99.90;;;;;;5091259;28;20395;-55
2023/09/24 06:45:52;;;;;;;11.90;7.70;;;11.60;99.90;;;;;;5092603;28;20394;-56
2023/09/24 06:48:18;;;;;;;12.18;6.18;;;11.70;99.90;;;;;;5095065;28;20032;-51
2023/09/24 06:50:43;;;;;;;11.73;6.93;;;11.80;99.90;;;;;;5095578;28;20040;-55
2023/09/24 06:53:09;;;;;;;11.23;6.90;;;11.90;99.90;;;;;;5095555;28;20086;-52
2023/09/24 06:55:39;;;;;;;11.90;6.20;;;12.00;99.90;;;;;;5095398;28;20813;-52
2023/09/24 06:58:04;;;;;;;9.25;5.80;;;12.10;99.90;;;;;;5095155;28;20048;-50
2023/09/24 07:00:30;;;;;;;10.57;6.07;;;12.20;99.90;;;;;;5095712;28;20572;-55
2023/09/24 07:02:55;;;;;;;8.25;5.88;;;12.40;99.90;;;;;;5093988;28;20048;-53
2023/09/24 07:05:21;;;;;;;10.32;5.82;;;12.60;99.90;;;;;;5081979;28;20437;-54
2023/09/24 07:07:47;;;;;;;11.57;5.68;;;12.90;99.90;;;;;;5074400;28;20541;-54
2023/09/24 07:10:13;;;;;;;14.07;5.40;;;13.10;99.90;;;;;;5074875;28;20068;-53
2023/09/24 07:12:39;;;;;;;11.10;5.47;;;13.30;99.90;;;;;;5074414;28;20048;-54
2023/09/24 07:15:06;;;;;;;10.02;5.10;;;13.60;99.90;;;;;;5074579;28;20110;-55
2023/09/24 07:17:32;;;;;;;9.45;4.93;;;14.00;99.90;;;;;;5074245;28;20130;-54
2023/09/24 07:19:57;;;;;;;12.95;5.13;;;14.20;99.90;;;;;;5074733;28;20072;-55
2023/09/24 07:22:26;;;;;;;9.63;4.93;;;14.50;99.90;;;;;;5074729;28;20090;-54
2023/09/24 07:24:52;;;;;;;12.93;5.47;;;14.90;99.90;;;;;;5074416;28;20116;-53
2023/09/24 07:27:19;;;;;;;7.35;4.57;;;15.30;99.90;;;;;;5077360;28;20036;-52
2023/09/24 07:29:45;;;;;;;10.20;4.47;;;15.60;99.90;;;;;;5094463;28;20119;-56
2023/09/24 07:32:11;;;;;;;9.88;4.35;;;15.60;99.90;;;;;;5094373;28;20389;-53
2023/09/24 07:34:37;;;;;;;7.65;4.63;;;15.80;99.90;;;;;;5094483;28;20114;-50
2023/09/24 07:37:05;;;;;;;9.93;4.57;;;15.90;99.90;;;;;;5094547;28;20363;-54
2023/09/24 07:39:30;;;;;;;10.20;4.75;;;16.10;99.90;;;;;;5093156;28;20448;-55
2023/09/24 07:41:56;;;;;;;10.13;4.72;;;16.40;99.90;;;;;;5094496;28;20123;-54
2023/09/24 07:44:22;;;;;;;7.72;4.10;;;16.60;99.90;;;;;;5094112;28;20040;-55
2023/09/24 07:46:48;;;;;;;6.55;4.25;;;16.80;99.90;;;;;;5094381;28;20052;-55
2023/09/24 07:49:15;;;;;;;7.95;4.47;;;16.90;99.90;;;;;;5094370;28;20036;-54
2023/09/24 07:51:41;;;;;;;8.15;4.10;;;17.20;99.90;;;;;;5094054;28;20051;-52
2023/09/24 07:54:08;;;;;;;7.10;3.97;;;17.40;99.90;;;;;;5093208;28;20044;-54
2023/09/24 07:56:34;;;;;;;8.45;4.35;;;17.70;99.90;;;;;;5094032;28;20456;-52
2023/09/24 07:59:02;;;;;;;9.32;4.10;;;18.00;99.90;;;;;;5093011;28;20529;-54
2023/09/24 08:01:28;;;;;;;13.27;4.18;;;18.10;99.90;;;;;;5094267;28;20040;-55
2023/09/24 08:03:54;;;;;;;8.32;3.55;;;18.30;99.90;;;;;;5092702;28;20032;-52
2023/09/24 08:06:20;;;;;;;7.20;4.10;;;18.40;99.90;;;;;;5073733;28;20040;-53
2023/09/24 08:08:45;;;;;;;9.95;3.38;;;18.50;99.90;;;;;;5073800;28;20044;-51
2023/09/24 08:11:11;;;;;;;9.35;3.60;;;18.40;99.90;;;;;;5072027;28;20756;-55
2023/09/24 08:13:37;;;;;;;8.90;4.07;;;18.40;99.90;;;;;;5073493;28;20040;-50
2023/09/24 08:16:03;;;;;;;11.60;4.05;;;18.60;99.90;;;;;;5071866;28;20081;-52
2023/09/24 08:18:29;;;;;;;6.40;3.85;;;18.90;99.90;;;;;;5073653;28;20105;-51
2023/09/24 08:20:55;;;;;;;6.00;3.25;;;19.00;99.90;;;;;;5072089;28;20546;-54
2023/09/24 08:23:21;;;;;;;7.13;3.67;;;19.20;99.90;;;;;;5073429;28;20040;-52
2023/09/24 08:25:51;;;;;;;6.25;3.22;;;19.20;99.90;;;;;;5079496;28;20047;-55
2023/09/24 08:28:17;;;;;;;10.90;3.63;;;19.30;99.90;;;;;;5093272;28;20039;-55
2023/09/24 08:30:43;;;;;;;10.23;3.58;;;19.50;99.90;;;;;;5093364;28;20039;-52
2023/09/24 08:33:09;;;;;;;8.68;3.58;;;19.50;99.90;;;;;;5093372;28;20417;-53
2023/09/24 08:35:41;;;;;;;7.85;3.15;;;19.40;99.90;;;;;;5093368;28;20036;-54
2023/09/24 08:38:08;;;;;;;7.70;2.92;;;19.70;99.90;;;;;;5093080;28;20040;-55
2023/09/24 08:40:33;;;;;;;7.53;3.15;;;19.80;99.90;;;;;;5091971;28;20090;-55
2023/09/24 08:42:59;;;;;;;8.10;3.25;;;20.00;99.90;;;;;;5092997;28;20319;-54
2023/09/24 08:45:29;;;;;;;7.55;3.63;;;20.20;99.90;;;;;;5093081;28;20040;-55
2023/09/24 08:47:55;;;;;;;5.72;2.80;;;20.40;99.90;;;;;;5092850;28;20498;-52
2023/09/24 08:50:21;;;;;;;8.00;2.30;;;20.60;99.90;;;;;;5091607;28;20494;-51
2023/09/24 08:52:47;;;;;;;5.40;2.63;;;20.70;99.90;;;;;;5092989;28;20036;-52
2023/09/24 08:55:14;;;;;;;6.22;2.90;;;20.90;99.90;;;;;;5092963;28;20450;-54
2023/09/24 08:57:44;;;;;;;5.40;2.20;;;21.10;99.90;;;;;;5092982;28;20058;-55
2023/09/24 09:00:12;;;;;;;6.75;2.55;;;21.30;99.90;;;;;;5092856;28;20052;-54
2023/09/24 09:02:42;;;;;;;6.57;2.45;;;21.30;99.90;;;;;;5093040;28;20050;-52
2023/09/24 09:05:20;;;;;;;6.88;2.60;;;21.40;99.90;;;;;;5090463;28;20387;-53
2023/09/24 09:07:58;;;;;;;5.28;2.25;;;21.40;99.90;;;;;;5092570;28;20041;-48
2023/09/24 09:10:28;;;;;;;10.18;2.40;;;21.30;99.90;;;;;;5092477;28;20044;-53
2023/09/24 09:13:14;;;;;;;6.22;2.35;;;21.40;99.90;;;;;;5092553;28;20043;-54
2023/09/24 09:15:41;;;;;;;5.15;2.10;;;21.50;99.90;;;;;;5065784;28;20268;-55
2023/09/24 09:18:24;;;;;;;3.97;2.22;;;21.40;99.90;;;;;;5092309;28;20087;-51
2023/09/24 09:20:51;;;;;;;5.05;1.98;;;21.50;99.90;;;;;;5067448;28;20076;-52
2023/09/24 09:23:33;;;;;;;6.85;2.17;;;21.30;99.90;;;;;;5092740;28;20044;-52
2023/09/24 09:25:59;;;;;;;6.97;2.67;;;21.20;99.90;;;;;;5092473;28;20048;-53
2023/09/24 09:28:27;;;;;;;7.50;2.30;;;21.10;99.90;;;;;;5091954;28;20051;-54
2023/09/24 09:31:06;;;;;;;6.28;2.65;;;20.80;99.90;;;;;;5092219;28;20114;-52
2023/09/24 09:33:38;;;;;;;6.57;2.67;;;20.60;99.90;;;;;;5090891;28;20081;-53
2023/09/24 09:36:04;;;;;;;7.50;2.83;;;20.20;99.90;;;;;;5092211;28;20043;-53
2023/09/24 09:38:30;;;;;;;7.55;2.42;;;20.00;99.90;;;;;;5092251;28;20073;-54
2023/09/24 09:40:59;;;;;;;7.03;2.42;;;20.00;99.90;;;;;;5091964;28;20032;-54
2023/09/24 09:43:29;;;;;;;8.02;2.47;;;19.80;99.90;;;;;;5092023;28;20093;-55
2023/09/24 09:45:57;;;;;;;7.18;2.40;;;19.80;99.90;;;;;;5092117;28;20040;-54
2023/09/24 09:48:28;;;;;;;5.07;2.53;;;19.70;99.90;;;;;;5091955;28;20082;-54
2023/09/24 09:51:02;;;;;;;6.22;2.25;;;19.40;99.90;;;;;;5092010;28;20027;-53
2023/09/24 09:53:34;;;;;;;6.90;2.70;;;19.30;99.90;;;;;;5091794;28;20398;-52
2023/09/24 09:56:05;;;;;;;9.82;2.72;;;19.10;99.90;;;;;;5092075;28;20036;-54
2023/09/24 09:58:33;;;;;;;8.30;1.92;;;19.20;99.90;;;;;;5091988;28;20440;-51
2023/09/24 10:01:00;;;;;;;;;;;19.00;99.90;;;;;;5092281;28;20036;-54
2023/09/24 10:03:27;;;;;;;9.50;2.78;;;18.90;99.90;;;;;;5091701;28;19941;-52
2023/09/24 10:05:54;;;;;;;8.25;2.25;;;18.80;99.90;;;;;;5074621;28;20047;-53
2023/09/24 10:08:42;;;;;;;8.13;2.35;;;18.80;99.90;;;;;;5071361;28;20119;-50
2023/09/24 10:11:10;;;;;;;11.32;2.63;;;18.80;99.90;;;;;;5071603;28;20040;-50
2023/09/24 10:13:44;;;;;;;6.03;2.00;;;18.80;99.90;;;;;;5071669;28;20064;-53
2023/09/24 10:16:25;;;;;;;4.07;1.95;;;18.80;99.90;;;;;;5071202;28;20414;-54
2023/09/24 10:18:58;;;;;;;6.30;2.05;;;18.90;99.90;;;;;;5077434;28;20044;-53
2023/09/24 10:21:43;;;;;;;7.15;2.00;;;19.00;99.90;;;;;;5091406;28;20491;-53
2023/09/24 10:24:14;;;;;;;5.80;2.08;;;19.00;99.90;;;;;;5091550;28;20044;-54
2023/09/24 10:26:54;;;;;;;5.90;2.22;;;19.00;99.90;;;;;;5091498;28;20067;-52
2023/09/24 10:29:40;;;;;;;7.15;2.28;;;19.00;99.90;;;;;;5091623;28;20097;-53
2023/09/24 10:32:09;;;;;;;6.15;1.70;;;18.90;99.90;;;;;;5091337;28;20074;-55
2023/09/24 10:35:09;;;;;;;6.95;1.98;;;18.90;99.90;;;;;;5064017;28;20040;-55
2023/09/24 10:37:35;;;;;;;4.70;1.70;;;18.90;99.90;;;;;;5055778;28;20052;-52
2023/09/24 10:40:09;;;;;;;6.85;1.98;;;19.00;99.90;;;;;;5068806;28;20090;-56
2023/09/24 10:42:39;;;;;;;4.13;1.63;;;19.10;99.90;;;;;;5052275;28;20045;-54
2023/09/24 10:45:08;;;;;;;6.40;1.73;;;19.10;99.90;;;;;;5068881;28;20526;-53
2023/09/24 10:47:36;;;;;;;3.72;1.65;;;19.00;99.90;;;;;;5068846;28;20048;-53
2023/09/24 10:50:06;;;;;;;6.35;2.13;;;18.90;99.90;;;;;;5068875;28;20040;-54
2023/09/24 10:52:58;;;;;;;4.47;1.88;;;18.90;99.90;;;;;;5069178;28;20119;-54
2023/09/24 10:55:29;;;;;;;6.55;2.28;;;18.90;99.90;;;;;;5068936;28;20037;-55
2023/09/24 10:57:57;;;;;;;6.00;2.00;;;18.90;99.90;;;;;;5069017;28;20059;-52
2023/09/24 11:00:25;;;;;;;6.15;1.98;;;18.90;99.90;;;;;;5068770;28;20057;-55
2023/09/24 11:03:05;;;;;;;6.27;1.70;;;18.90;99.90;;;;;;5069181;28;20098;-55
2023/09/24 11:05:35;;;;;;;9.10;2.15;;;19.00;99.90;;;;;;5054680;28;20272;-53
2023/09/24 11:08:00;;;;;;;4.07;1.70;;;19.10;99.90;;;;;;5064465;28;20048;-52
2023/09/24 11:10:26;;;;;;;4.68;1.90;;;19.20;99.90;;;;;;5068992;28;20457;-55
2023/09/24 11:12:53;;;;;;;7.35;2.45;;;19.20;99.90;;;;;;5077703;28;20056;-55
2023/09/24 11:15:19;;;;;;;4.72;2.10;;;19.30;99.90;;;;;;5091513;28;20036;-55
2023/09/24 11:17:46;;;;;;;9.95;2.22;;;19.40;99.90;;;;;;5091396;28;20810;-52
2023/09/24 11:20:13;;;;;;;7.10;1.90;;;19.50;99.90;;;;;;5091261;28;20040;-55
2023/09/24 11:22:39;;;;;;;4.75;2.25;;;19.30;99.90;;;;;;5091572;28;20037;-49
2023/09/24 11:25:07;;;;;;;5.82;2.00;;;19.50;99.90;;;;;;5091101;28;20066;-50
2023/09/24 11:27:45;;;;;;;2.90;1.60;;;19.60;99.90;;;;;;5088157;28;20626;-54
2023/09/24 11:30:11;;;;;;;7.07;2.00;;;19.60;99.90;;;;;;5090425;28;20555;-54
2023/09/24 11:32:37;;;;;;;7.68;2.17;;;19.60;99.90;;;;;;5091632;28;20032;-55
2023/09/24 11:35:13;;;;;;;4.95;1.98;;;19.70;99.90;;;;;;5094601;28;20420;-53
2023/09/24 11:37:53;;;;;;;2.97;1.50;;;19.80;99.90;;;;;;5094403;28;20036;-51
2023/09/24 11:40:21;;;;;;;9.55;2.15;;;19.90;99.90;;;;;;5067173;28;20115;-55
2023/09/24 11:43:13;;;;;;;5.15;1.73;;;19.90;99.90;;;;;;5094427;28;20040;-53
2023/09/24 11:45:47;;;;;;;5.38;1.95;;;19.90;99.90;;;;;;5093744;28;20394;-54
2023/09/24 11:48:24;;;;;;;5.00;1.70;;;20.00;99.90;;;;;;5094555;28;20122;-53
2023/09/24 11:50:57;;;;;;;5.90;1.63;;;20.00;99.90;;;;;;5093214;28;20051;-54
2023/09/24 11:53:25;;;;;;;6.55;1.83;;;20.00;99.90;;;;;;5094100;28;20398;-55
2023/09/24 11:55:55;;;;;;;7.20;2.10;;;20.00;99.90;;;;;;5094171;28;20119;-55
2023/09/24 11:58:25;;;;;;;6.00;2.67;;;20.10;99.90;;;;;;5094154;28;20446;-53
2023/09/24 12:00:52;;;;;;;6.28;2.97;;;20.10;99.90;;;;;;5094191;28;20121;-49
2023/09/24 12:03:20;;;;;;;4.03;1.80;;;20.00;99.90;;;;;;5092920;28;20047;-53
2023/09/24 12:05:47;;;;;;;4.77;1.87;;;20.10;99.90;;;;;;5076034;28;20532;-51
2023/09/24 12:08:13;;;;;;;4.10;1.70;;;20.00;99.90;;;;;;5073509;28;20119;-55
2023/09/24 12:10:40;;;;;;;6.10;1.77;;;20.00;99.90;;;;;;5073475;28;20166;-55
2023/09/24 12:13:10;;;;;;;8.35;2.08;;;20.00;99.90;;;;;;5073406;28;20544;-55
2023/09/24 12:15:36;;;;;;;3.50;1.50;;;20.00;99.90;;;;;;5073734;28;20043;-52
2023/09/24 12:18:04;;;;;;;4.03;1.75;;;20.10;99.90;;;;;;5073567;28;20055;-55
2023/09/24 12:20:31;;;;;;;5.00;1.83;;;20.10;99.90;;;;;;5073220;28;20577;-51
2023/09/24 12:22:59;;;;;;;5.22;1.67;;;20.10;99.90;;;;;;5073324;28;20039;-54
2023/09/24 12:25:24;;;;;;;2.55;1.45;;;20.20;99.90;;;;;;5073409;28;20032;-55
2023/09/24 12:27:50;;;;;;;4.47;1.48;;;20.30;99.90;;;;;;5073059;28;20047;-53
2023/09/24 12:30:16;;;;;;;2.45;1.20;;;20.30;99.90;;;;;;5073413;28;20475;-53
2023/09/24 12:32:42;;;;;;;3.65;1.52;;;20.50;99.90;;;;;;5073261;28;20032;-54
2023/09/24 12:35:11;;;;;;;3.65;1.33;;;20.50;99.90;;;;;;5073257;28;20032;-54
2023/09/24 12:37:37;;;;;;;3.63;1.50;;;20.40;99.90;;;;;;5076544;28;20036;-54
2023/09/24 12:40:08;;;;;;;4.18;1.40;;;20.50;99.90;;;;;;5089217;28;20043;-55
2023/09/24 12:42:39;;;;;;;4.82;1.58;;;20.50;99.90;;;;;;5092023;28;20387;-52
2023/09/24 12:45:06;;;;;;;5.63;1.83;;;20.50;99.90;;;;;;5093071;28;20062;-55
2023/09/24 12:47:33;;;;;;;3.50;1.80;;;20.60;99.90;;;;;;5093052;28;20086;-55
2023/09/24 12:50:06;;;;;;;5.65;1.50;;;20.50;99.90;;;;;;5093153;28;20043;-55
2023/09/24 12:52:34;;;;;;;2.40;1.17;;;20.50;99.90;;;;;;5092991;28;20121;-53